KLWV

Details ICAO KLWV
Name LAWRENCEVILLE VINCENNES INTL
Region United States
Timezone America/Chicago (UTC-6.0)
Plans Departing 5
Arriving 0
Stats Elevation 430 ft / 131 m (AMSL)
Location 38.759799° -87.608480°
Runways 3
Magnetic Variation 3.499° W
Sunrise 2017-12-17 13:04:17 UTC / 2017-12-17 07:04:17 Local
Sunset 2017-12-17 22:31:47 UTC / 2017-12-17 16:31:47 Local
Advertisement - Login to hide

Runways

ID Width Length Bearing (true) Bearing (mag) Surface Threshold Offset Overrun Length
04 200 ft / 61 m 1,000 ft / 305 m 44.91° 48.41° Grass 0 ft / 0 m 0 ft / 0 m
09 150 ft / 46 m 5,186 ft / 1,581 m 89.41° 92.91° Asphalt 0 ft / 0 m 0 ft / 0 m
18 150 ft / 46 m 5,209 ft / 1,588 m 179.48° 182.98° Asphalt 0 ft / 0 m 0 ft / 0 m
22 200 ft / 61 m 1,000 ft / 305 m 224.91° 228.41° Grass 0 ft / 0 m 0 ft / 0 m
27 150 ft / 46 m 5,186 ft / 1,581 m 269.42° 272.92° Asphalt 0 ft / 0 m 0 ft / 0 m
36 150 ft / 46 m 5,209 ft / 1,588 m 359.48° 2.98° Asphalt 0 ft / 0 m 0 ft / 0 m

Map

Weather


0- 5 10 15 20 25 30 35+ Temperature / ° C

Clouds and Precipitation
Forecast for 2017-12-18 06:00 UTC. Updated 2 hours ago

Ground ~20,000 ft ~40,000 ft Winds

METAR

KLWV 180453Z AUTO 20009KT 5SM BR OVC005 06/05 A3010 RMK AO2 SLP195 T00610050

TAF

Not found

Frequencies

Recorded 118.00 MHz ASOS
Approach 125.60 MHz EVANSVILLE APP/DEP
Unicom 122.80 MHz CTAF/UNICOM
Warning: Do not use this data for real-world aviation or navigation. No guarantee of current accuracy is given.